Time;durP1;ratioP1;P1;durP2;ratioP2;P2;SDS_P1;SDS_P2;PMS_P1;PMS_P2;Temp;Humidity;BMP_temperature;BMP_pressure;BME280_temperature;BME280_humidity;BME280_pressure;Samples;Min_cycle;Max_cycle;Signal;HPM_P1;HPM_P2
2022/08/24 00:02:34;;;;;;;;;;;;;;;;;;10498971;28;19928;-64
2022/08/24 00:07:36;;;;;;;;;;;;;;;;;;10498986;28;19925;-64
2022/08/24 00:12:39;;;;;;;;;;;;;;;;;;10499095;28;19932;-64
2022/08/24 00:17:41;;;;;;;;;;;;;;;;;;10498258;28;19939;-64
2022/08/24 00:22:43;;;;;;;;;;;;;;;;;;10498378;28;19924;-64
2022/08/24 00:27:45;;;;;;;;;;;;;;;;;;10498156;28;19931;-64
2022/08/24 00:32:47;;;;;;;;;;;;;;;;;;10498540;28;19925;-64
2022/08/24 00:37:49;;;;;;;;;;;;;;;;;;10498434;28;19924;-64
2022/08/24 00:42:51;;;;;;;;;;;;;;;;;;10497804;28;20355;-64
2022/08/24 00:47:54;;;;;;;;;;;;;;;;;;10497724;28;19952;-64
2022/08/24 00:52:56;;;;;;;;;;;;;;;;;;10498254;28;19931;-64
2022/08/24 00:57:58;;;;;;;;;;;;;;;;;;10497953;28;19924;-64
2022/08/24 01:03:03;;;;;;;;;;;;;;;;;;10497236;28;20363;-64
2022/08/24 01:08:05;;;;;;;;;;;;;;;;;;10497953;28;19931;-64
2022/08/24 01:13:07;;;;;;;;;;;;;;;;;;10505712;28;19932;-64
2022/08/24 01:23:30;;;;;;;;;;;;;;;;;;10504742;28;20290;-59
2022/08/24 01:28:38;;;;;;;;;;;;;;;;;;10504562;28;19925;-59
2022/08/24 01:33:41;;;;;;;;;;;;;;;;;;10505041;28;19935;-59
2022/08/24 01:38:43;;;;;;;;;;;;;;;;;;10486368;28;19933;-59
2022/08/24 01:43:45;;;;;;;;;;;;;;;;;;10486267;28;20037;-59
2022/08/24 01:48:47;;;;;;;;;;;;;;;;;;10504423;28;19925;-59
2022/08/24 01:53:49;;;;;;;;;;;;;;;;;;10504276;28;19924;-59
2022/08/24 01:58:52;;;;;;;;;;;;;;;;;;10503996;28;19931;-59
2022/08/24 02:03:54;;;;;;;;;;;;;;;;;;10503503;28;19931;-59
2022/08/24 02:08:56;;;;;;;;;;;;;;;;;;10503675;28;19936;-59
2022/08/24 02:13:58;;;;;;;;;;;;;;;;;;10503151;28;19930;-59
2022/08/24 02:19:00;;;;;;;;;;;;;;;;;;10502625;28;20276;-59
2022/08/24 02:24:02;;;;;;;;;;;;;;;;;;10484156;28;19924;-59
2022/08/24 02:29:04;;;;;;;;;;;;;;;;;;10502909;28;19931;-59
2022/08/24 02:34:06;;;;;;;;;;;;;;;;;;10502665;28;19929;-59
2022/08/24 02:39:08;;;;;;;;;;;;;;;;;;10502109;28;20364;-59
2022/08/24 02:44:10;;;;;;;;;;;;;;;;;;10502272;28;19932;-59
2022/08/24 02:49:13;;;;;;;;;;;;;;;;;;10501416;28;20283;-59
2022/08/24 02:54:18;;;;;;;;;;;;;;;;;;10501827;28;19931;-59
2022/08/24 02:59:20;;;;;;;;;;;;;;;;;;10501493;28;19932;-59
2022/08/24 03:04:22;;;;;;;;;;;;;;;;;;10501405;28;19925;-59
2022/08/24 03:09:24;;;;;;;;;;;;;;;;;;10500648;28;20282;-59
2022/08/24 03:14:26;;;;;;;;;;;;;;;;;;10500302;28;19928;-59
2022/08/24 03:19:28;;;;;;;;;;;;;;;;;;10501187;28;19931;-59
2022/08/24 03:24:30;;;;;;;;;;;;;;;;;;10500645;28;19931;-59
2022/08/24 03:29:34;;;;;;;;;;;;;;;;;;10499753;28;19947;-59
2022/08/24 03:34:36;;;;;;;;;;;;;;;;;;10499897;28;19928;-59
2022/08/24 03:39:38;;;;;;;;;;;;;;;;;;10499970;28;19925;-59
2022/08/24 03:44:40;;;;;;;;;;;;;;;;;;10499850;28;19932;-59
2022/08/24 03:49:43;;;;;;;;;;;;;;;;;;10499075;28;20274;-59
2022/08/24 03:54:45;;;;;;;;;;;;;;;;;;10499426;28;19928;-59
2022/08/24 03:59:48;;;;;;;;;;;;;;;;;;10499320;28;19924;-59
2022/08/24 04:04:50;;;;;;;;;;;;;;;;;;10498672;28;19924;-59
2022/08/24 04:09:52;;;;;;;;;;;;;;;;;;10498539;28;19924;-59
2022/08/24 04:14:57;;;;;;;;;;;;;;;;;;10499257;28;19925;-59
2022/08/24 04:19:59;;;;;;;;;;;;;;;;;;10498894;28;20359;-59
2022/08/24 04:25:01;;;;;;;;;;;;;;;;;;10498825;28;19931;-59
2022/08/24 04:30:03;;;;;;;;;;;;;;;;;;10498112;28;19999;-60
2022/08/24 04:35:06;;;;;;;;;;;;;;;;;;10498020;28;20308;-59
2022/08/24 04:40:08;;;;;;;;;;;;;;;;;;10498468;28;19931;-60
2022/08/24 04:45:10;;;;;;;;;;;;;;;;;;10501498;28;20383;-59
2022/08/24 04:50:12;;;;;;;;;;;;;;;;;;10506089;28;19924;-60
2022/08/24 04:55:14;;;;;;;;;;;;;;;;;;10506541;28;19924;-60
2022/08/24 05:00:16;;;;;;;;;;;;;;;;;;10505718;28;20401;-60
2022/08/24 05:05:19;;;;;;;;;;;;;;;;;;10506145;28;19924;-60
2022/08/24 05:10:21;;;;;;;;;;;;;;;;;;10505937;28;19931;-59
2022/08/24 05:15:24;;;;;;;;;;;;;;;;;;10504956;28;20390;-59
2022/08/24 05:20:26;;;;;;;;;;;;;;;;;;10504878;28;20498;-60
2022/08/24 05:25:28;;;;;;;;;;;;;;;;;;10505336;28;19925;-60
2022/08/24 05:30:30;;;;;;;;;;;;;;;;;;10504440;28;20318;-59
2022/08/24 05:35:32;;;;;;;;;;;;;;;;;;10504212;28;20398;-59
2022/08/24 05:40:34;;;;;;;;;;;;;;;;;;10504755;28;19931;-60
2022/08/24 05:45:36;;;;;;;;;;;;;;;;;;10486891;28;19928;-59
2022/08/24 05:50:38;;;;;;;;;;;;;;;;;;10504322;28;19931;-59
2022/08/24 05:55:40;;;;;;;;;;;;;;;;;;10503167;28;20278;-59
2022/08/24 06:00:45;;;;;;;;;;;;;;;;;;10503996;28;19924;-59
2022/08/24 06:05:48;;;;;;;;;;;;;;;;;;10485980;28;19924;-59
2022/08/24 06:10:50;;;;;;;;;;;;;;;;;;10503532;28;19925;-59
2022/08/24 06:15:52;;;;;;;;;;;;;;;;;;10502986;28;19939;-59
2022/08/24 06:21:14;;;;;;;;;;;;;;;;;;10503261;28;19924;-60
2022/08/24 06:31:38;;;;;;;;;;;;;;;;;;10502756;28;19931;-60
2022/08/24 06:36:41;;;;;;;;;;;;;;;;;;10503060;28;19924;-60
2022/08/24 06:41:43;;;;;;;;;;;;;;;;;;10502404;28;19924;-60
2022/08/24 06:46:45;;;;;;;;;;;;;;;;;;10502230;28;19931;-59
2022/08/24 06:51:47;;;;;;;;;;;;;;;;;;10484396;28;19924;-59
2022/08/24 06:56:51;;;;;;;;;;;;;;;;;;10501098;28;20023;-60
2022/08/24 07:01:54;;;;;;;;;;;;;;;;;;10501543;28;19925;-60
2022/08/24 07:06:56;;;;;;;;;;;;;;;;;;10500080;28;19982;-60
2022/08/24 07:11:59;;;;;;;;;;;;;;;;;;10500509;28;20364;-60
2022/08/24 07:17:01;;;;;;;;;;;;;;;;;;10500325;28;19931;-60
2022/08/24 07:22:03;;;;;;;;;;;;;;;;;;10500091;28;19931;-60
2022/08/24 07:27:05;;;;;;;;;;;;;;;;;;10500516;28;19928;-60
2022/08/24 07:32:09;;;;;;;;;;;;;;;;;;10499705;28;20283;-60
2022/08/24 07:37:11;;;;;;;;;;;;;;;;;;10499468;28;19931;-60
2022/08/24 07:42:13;;;;;;;;;;;;;;;;;;10500031;28;19931;-60
2022/08/24 07:47:21;;;;;;;;;;;;;;;;;;10499229;28;19936;-60
2022/08/24 07:52:43;;;;;;;;;;;;;;;;;;10498991;28;20325;-60
2022/08/24 07:57:45;;;;;;;;;;;;;;;;;;10499452;28;19924;-60
2022/08/24 08:02:48;;;;;;;;;;;;;;;;;;10498749;28;20379;-60
2022/08/24 08:07:50;;;;;;;;;;;;;;;;;;10499747;28;19963;-60
2022/08/24 08:12:53;;;;;;;;;;;;;;;;;;10499147;28;19931;-60
2022/08/24 08:17:55;;;;;;;;;;;;;;;;;;10498111;28;19947;-60
2022/08/24 08:28:18;;;;;;;;;;;;;;;;;;10498207;28;19924;-60
2022/08/24 08:33:27;;;;;;;;;;;;;;;;;;10498723;28;19970;-61
2022/08/24 08:38:29;;;;;;;;;;;;;;;;;;10497910;28;19930;-60
2022/08/24 08:43:31;;;;;;;;;;;;;;;;;;10498457;28;19924;-61
2022/08/24 08:48:33;;;;;;;;;;;;;;;;;;10497767;28;19924;-61
2022/08/24 08:53:35;;;;;;;;;;;;;;;;;;10498387;28;19924;-61
2022/08/24 08:58:37;;;;;;;;;;;;;;;;;;10497570;28;19951;-61
2022/08/24 09:03:39;;;;;;;;;;;;;;;;;;10498152;28;19924;-60
2022/08/24 09:08:41;;;;;;;;;;;;;;;;;;10497417;28;19925;-61
2022/08/24 09:13:44;;;;;;;;;;;;;;;;;;10497329;28;19924;-61
2022/08/24 09:18:46;;;;;;;;;;;;;;;;;;10479813;28;19924;-61
2022/08/24 09:23:49;;;;;;;;;;;;;;;;;;10497708;28;19924;-61
2022/08/24 09:28:51;;;;;;;;;;;;;;;;;;10497645;28;19925;-61
2022/08/24 09:33:53;;;;;;;;;;;;;;;;;;10487176;28;19960;-61
2022/08/24 09:38:55;;;;;;;;;;;;;;;;;;10504873;28;19931;-61
2022/08/24 09:43:57;;;;;;;;;;;;;;;;;;10504088;28;20298;-59
2022/08/24 09:49:04;;;;;;;;;;;;;;;;;;10504548;28;19925;-61
2022/08/24 09:54:06;;;;;;;;;;;;;;;;;;10504350;28;19924;-61
2022/08/24 09:59:08;;;;;;;;;;;;;;;;;;10486393;28;19931;-61
2022/08/24 10:04:11;;;;;;;;;;;;;;;;;;10503982;28;19963;-61
2022/08/24 10:09:13;;;;;;;;;;;;;;;;;;10503826;28;19925;-59
2022/08/24 10:14:15;;;;;;;;;;;;;;;;;;10503298;28;19935;-62
2022/08/24 10:19:18;;;;;;;;;;;;;;;;;;10503883;28;19933;-61
2022/08/24 10:24:20;;;;;;;;;;;;;;;;;;10502752;28;20274;-62
2022/08/24 10:29:22;;;;;;;;;;;;;;;;;;10502452;28;20367;-62
2022/08/24 10:34:26;;;;;;;;;;;;;;;;;;10502152;28;20427;-64
2022/08/24 10:39:41;;;;;;;;;;;;;;;;;;10502596;28;19929;-63
2022/08/24 10:44:43;;;;;;;;;;;;;;;;;;10500802;28;19931;-62
2022/08/24 10:49:45;;;;;;;;;;;;;;;;;;10501587;28;20363;-62
2022/08/24 10:54:47;;;;;;;;;;;;;;;;;;10501365;28;20003;-63
2022/08/24 10:59:49;;;;;;;;;;;;;;;;;;10501140;28;19924;-62
2022/08/24 11:04:51;;;;;;;;;;;;;;;;;;10501593;28;19925;-62
2022/08/24 11:09:55;;;;;;;;;;;;;;;;;;10500695;28;20283;-61
2022/08/24 11:14:57;;;;;;;;;;;;;;;;;;10501262;28;19931;-60
2022/08/24 11:19:59;;;;;;;;;;;;;;;;;;10500226;28;19924;-61
2022/08/24 11:25:01;;;;;;;;;;;;;;;;;;10482540;28;19924;-62
2022/08/24 11:30:03;;;;;;;;;;;;;;;;;;10499933;28;19936;-62
2022/08/24 11:35:06;;;;;;;;;;;;;;;;;;10483248;28;19924;-64
2022/08/24 11:40:08;;;;;;;;;;;;;;;;;;10500112;28;19928;-64
2022/08/24 11:45:10;;;;;;;;;;;;;;;;;;10499942;28;19951;-64
2022/08/24 11:50:13;;;;;;;;;;;;;;;;;;10499856;28;19924;-64
2022/08/24 11:55:16;;;;;;;;;;;;;;;;;;10498862;28;19931;-64
2022/08/24 12:00:18;;;;;;;;;;;;;;;;;;10499466;28;19928;-64
2022/08/24 12:05:20;;;;;;;;;;;;;;;;;;10499438;28;19931;-64
2022/08/24 12:10:22;;;;;;;;;;;;;;;;;;10499308;28;19924;-64
2022/08/24 12:15:25;;;;;;;;;;;;;;;;;;10498952;28;20015;-64
2022/08/24 12:20:27;;;;;;;;;;;;;;;;;;10499004;28;19931;-64
2022/08/24 12:30:50;;;;;;;;;;;;;;;;;;10498671;28;19925;-64
2022/08/24 12:35:52;;;;;;;;;;;;;;;;;;10498709;28;19925;-64
2022/08/24 12:40:55;;;;;;;;;;;;;;;;;;10497924;28;20363;-64
2022/08/24 12:45:58;;;;;;;;;;;;;;;;;;10498369;28;20291;-64
2022/08/24 12:51:00;;;;;;;;;;;;;;;;;;10498347;28;20379;-64
2022/08/24 12:56:02;;;;;;;;;;;;;;;;;;10498920;28;19932;-64
2022/08/24 13:01:04;;;;;;;;;;;;;;;;;;10498559;28;19924;-64
2022/08/24 13:06:07;;;;;;;;;;;;;;;;;;10501606;28;19924;-65
2022/08/24 13:11:09;;;;;;;;;;;;;;;;;;10506099;28;19931;-65
2022/08/24 13:16:11;;;;;;;;;;;;;;;;;;10505223;28;20299;-64
2022/08/24 13:21:14;;;;;;;;;;;;;;;;;;10505777;28;19925;-63
2022/08/24 13:26:16;;;;;;;;;;;;;;;;;;10504829;28;19931;-63
2022/08/24 13:31:19;;;;;;;;;;;;;;;;;;10520051;22;19947;-68
2022/08/24 13:36:21;;;;;;;;;;;;;;;;;;10505146;28;19932;-69
2022/08/24 13:41:24;;;;;;;;;;;;;;;;;;10504715;28;19932;-69
2022/08/24 13:46:26;;;;;;;;;;;;;;;;;;10487017;28;19932;-69
2022/08/24 13:51:29;;;;;;;;;;;;;;;;;;10503880;28;20271;-69
2022/08/24 13:56:31;;;;;;;;;;;;;;;;;;10504384;28;19925;-69
2022/08/24 14:01:34;;;;;;;;;;;;;;;;;;10503489;28;19924;-69
2022/08/24 14:06:36;;;;;;;;;;;;;;;;;;10503946;28;19974;-70
2022/08/24 14:11:39;;;;;;;;;;;;;;;;;;10504001;28;19925;-69
2022/08/24 14:22:02;;;;;;;;;;;;;;;;;;10502767;28;19930;-68
2022/08/24 14:27:04;;;;;;;;;;;;;;;;;;10503289;28;19931;-68
2022/08/24 14:32:06;;;;;;;;;;;;;;;;;;10502725;28;19924;-68
2022/08/24 14:37:13;;;;;;;;;;;;;;;;;;10502730;28;19979;-68
2022/08/24 14:42:15;;;;;;;;;;;;;;;;;;10502551;28;19924;-68
2022/08/24 14:47:17;;;;;;;;;;;;;;;;;;10501708;28;19928;-68
2022/08/24 14:52:19;;;;;;;;;;;;;;;;;;10501479;28;20264;-68
2022/08/24 14:57:23;;;;;;;;;;;;;;;;;;10501192;28;19936;-68
2022/08/24 15:02:25;;;;;;;;;;;;;;;;;;10501066;28;20272;-67
2022/08/24 15:07:27;;;;;;;;;;;;;;;;;;10500846;28;20379;-67
2022/08/24 15:12:29;;;;;;;;;;;;;;;;;;10501296;28;19931;-67
2022/08/24 15:17:31;;;;;;;;;;;;;;;;;;10500946;28;19943;-67
2022/08/24 15:22:33;;;;;;;;;;;;;;;;;;10500970;28;19924;-67
2022/08/24 15:27:35;;;;;;;;;;;;;;;;;;10500588;28;19925;-67
2022/08/24 15:32:38;;;;;;;;;;;;;;;;;;10500506;28;19947;-67
2022/08/24 15:37:40;;;;;;;;;;;;;;;;;;10481904;28;19925;-67
2022/08/24 15:42:42;;;;;;;;;;;;;;;;;;10500104;28;19931;-67
2022/08/24 15:47:44;;;;;;;;;;;;;;;;;;10499957;28;19924;-67
2022/08/24 15:52:50;;;;;;;;;;;;;;;;;;10500234;28;19967;-67
2022/08/24 15:57:53;;;;;;;;;;;;;;;;;;10499115;28;19925;-67
2022/08/24 16:02:55;;;;;;;;;;;;;;;;;;10499494;28;19924;-67
2022/08/24 16:07:57;;;;;;;;;;;;;;;;;;10499284;28;19928;-67
2022/08/24 16:12:59;;;;;;;;;;;;;;;;;;10499561;28;19925;-67
2022/08/24 16:18:01;;;;;;;;;;;;;;;;;;10499064;28;19924;-67
2022/08/24 16:23:03;;;;;;;;;;;;;;;;;;10498492;28;19931;-67
2022/08/24 16:28:05;;;;;;;;;;;;;;;;;;10498890;28;19931;-66
2022/08/24 16:33:08;;;;;;;;;;;;;;;;;;10498662;28;19931;-67
2022/08/24 16:38:10;;;;;;;;;;;;;;;;;;10480720;28;20405;-67
2022/08/24 16:43:12;;;;;;;;;;;;;;;;;;10505844;28;19924;-66
2022/08/24 16:48:14;;;;;;;;;;;;;;;;;;10488616;28;19947;-66
2022/08/24 16:53:16;;;;;;;;;;;;;;;;;;10506236;28;20368;-66
2022/08/24 16:58:22;;;;;;;;;;;;;;;;;;10506573;28;19935;-66
2022/08/24 17:03:24;;;;;;;;;;;;;;;;;;10507068;28;19925;-66
2022/08/24 17:08:27;;;;;;;;;;;;;;;;;;10506172;28;19925;-66
2022/08/24 17:13:29;;;;;;;;;;;;;;;;;;10505404;28;20389;-66
2022/08/24 17:18:50;;;;;;;;;;;;;;;;;;10505289;28;19925;-66
2022/08/24 17:23:52;;;;;;;;;;;;;;;;;;10505640;28;19932;-66
2022/08/24 17:28:54;;;;;;;;;;;;;;;;;;10505242;28;19924;-66
2022/08/24 17:33:56;;;;;;;;;;;;;;;;;;10504663;28;20276;-66
2022/08/24 17:38:58;;;;;;;;;;;;;;;;;;10504845;28;20387;-65
2022/08/24 17:44:00;;;;;;;;;;;;;;;;;;10504831;28;19998;-65
2022/08/24 17:49:02;;;;;;;;;;;;;;;;;;10504696;28;19931;-65
2022/08/24 17:54:04;;;;;;;;;;;;;;;;;;10504486;28;19925;-65
2022/08/24 17:59:18;;;;;;;;;;;;;;;;;;10504190;28;19928;-65
2022/08/24 18:04:21;;;;;;;;;;;;;;;;;;10504088;28;19925;-65
2022/08/24 18:09:23;;;;;;;;;;;;;;;;;;10503894;28;19928;-65
2022/08/24 18:14:25;;;;;;;;;;;;;;;;;;10503783;28;19924;-65
2022/08/24 18:19:27;;;;;;;;;;;;;;;;;;10502857;28;19935;-64
2022/08/24 18:24:31;;;;;;;;;;;;;;;;;;10503347;28;19931;-64
2022/08/24 18:29:33;;;;;;;;;;;;;;;;;;10502853;28;19932;-65
2022/08/24 18:34:35;;;;;;;;;;;;;;;;;;10484367;28;20398;-64
2022/08/24 18:39:37;;;;;;;;;;;;;;;;;;10501922;28;20330;-64
2022/08/24 18:44:40;;;;;;;;;;;;;;;;;;10502485;28;19924;-64
2022/08/24 18:49:42;;;;;;;;;;;;;;;;;;10502193;28;19924;-64
2022/08/24 18:54:45;;;;;;;;;;;;;;;;;;10501435;28;19924;-64
2022/08/24 18:59:47;;;;;;;;;;;;;;;;;;10501737;28;19928;-64
2022/08/24 19:04:49;;;;;;;;;;;;;;;;;;10500160;28;20305;-64
2022/08/24 19:09:51;;;;;;;;;;;;;;;;;;10501433;28;19932;-64
2022/08/24 19:14:53;;;;;;;;;;;;;;;;;;10500640;28;19931;-64
2022/08/24 19:19:56;;;;;;;;;;;;;;;;;;10500336;28;19936;-64
2022/08/24 19:24:58;;;;;;;;;;;;;;;;;;10500221;28;20298;-64
2022/08/24 19:30:00;;;;;;;;;;;;;;;;;;10499842;28;19931;-64
2022/08/24 19:35:02;;;;;;;;;;;;;;;;;;10499800;28;19925;-64
2022/08/24 19:40:04;;;;;;;;;;;;;;;;;;10499607;28;19926;-63
2022/08/24 19:50:27;;;;;;;;;;;;;;;;;;10499253;28;19951;-63
2022/08/24 19:55:31;;;;;;;;;;;;;;;;;;10499183;28;19994;-63
2022/08/24 20:00:33;;;;;;;;;;;;;;;;;;10499952;28;19925;-63
2022/08/24 20:05:36;;;;;;;;;;;;;;;;;;10498835;28;20371;-63
2022/08/24 20:10:38;;;;;;;;;;;;;;;;;;10498727;28;20541;-63
2022/08/24 20:15:40;;;;;;;;;;;;;;;;;;10498314;28;19940;-63
2022/08/24 20:20:42;;;;;;;;;;;;;;;;;;10480649;28;20290;-63
2022/08/24 20:25:45;;;;;;;;;;;;;;;;;;10498310;28;20295;-63
2022/08/24 20:30:47;;;;;;;;;;;;;;;;;;10498457;28;19931;-63
2022/08/24 20:35:49;;;;;;;;;;;;;;;;;;10481034;28;19925;-63
2022/08/24 20:40:51;;;;;;;;;;;;;;;;;;10497974;28;20294;-63
2022/08/24 20:45:53;;;;;;;;;;;;;;;;;;10498456;28;19931;-63
2022/08/24 20:50:55;;;;;;;;;;;;;;;;;;10497832;28;19931;-63
2022/08/24 20:55:57;;;;;;;;;;;;;;;;;;10498851;28;19928;-63
2022/08/24 21:01:00;;;;;;;;;;;;;;;;;;10480879;28;19931;-63
2022/08/24 21:06:02;;;;;;;;;;;;;;;;;;10498154;28;19947;-63
2022/08/24 21:11:05;;;;;;;;;;;;;;;;;;10498022;28;19924;-63
2022/08/24 21:16:07;;;;;;;;;;;;;;;;;;10498004;28;19932;-63
2022/08/24 21:21:09;;;;;;;;;;;;;;;;;;10497124;28;20419;-63
2022/08/24 21:26:11;;;;;;;;;;;;;;;;;;10499653;28;19931;-63
2022/08/24 21:31:13;;;;;;;;;;;;;;;;;;10504555;28;19932;-63
2022/08/24 21:36:16;;;;;;;;;;;;;;;;;;10505375;28;19925;-63
2022/08/24 21:41:18;;;;;;;;;;;;;;;;;;10504912;28;19944;-63
2022/08/24 21:46:20;;;;;;;;;;;;;;;;;;10504165;28;20290;-63
2022/08/24 21:51:22;;;;;;;;;;;;;;;;;;10503986;28;19931;-63
2022/08/24 21:56:24;;;;;;;;;;;;;;;;;;10504413;28;19925;-63
2022/08/24 22:01:27;;;;;;;;;;;;;;;;;;10503579;28;20372;-63
2022/08/24 22:06:29;;;;;;;;;;;;;;;;;;10504087;28;19967;-63
2022/08/24 22:11:32;;;;;;;;;;;;;;;;;;10503242;28;19967;-63
2022/08/24 22:16:34;;;;;;;;;;;;;;;;;;10503707;28;19929;-63
2022/08/24 22:21:38;;;;;;;;;;;;;;;;;;10503431;28;19928;-63
2022/08/24 22:26:40;;;;;;;;;;;;;;;;;;10503305;28;19924;-62
2022/08/24 22:31:42;;;;;;;;;;;;;;;;;;10502571;28;19924;-63
2022/08/24 22:36:44;;;;;;;;;;;;;;;;;;10502267;28;20011;-63
2022/08/24 22:41:46;;;;;;;;;;;;;;;;;;10484260;28;20272;-63
2022/08/24 22:46:48;;;;;;;;;;;;;;;;;;10501833;28;20295;-63
2022/08/24 22:51:51;;;;;;;;;;;;;;;;;;10502266;28;19970;-63
2022/08/24 22:56:53;;;;;;;;;;;;;;;;;;10502127;28;19925;-62
2022/08/24 23:01:55;;;;;;;;;;;;;;;;;;10501849;28;19925;-62
2022/08/24 23:06:57;;;;;;;;;;;;;;;;;;10501566;28;20431;-62
2022/08/24 23:11:59;;;;;;;;;;;;;;;;;;10501641;28;19932;-62
2022/08/24 23:17:01;;;;;;;;;;;;;;;;;;10500589;28;20295;-62
2022/08/24 23:22:03;;;;;;;;;;;;;;;;;;10500966;28;19924;-62
2022/08/24 23:27:05;;;;;;;;;;;;;;;;;;10482519;28;19947;-62
2022/08/24 23:32:07;;;;;;;;;;;;;;;;;;10499820;28;20316;-62
2022/08/24 23:37:09;;;;;;;;;;;;;;;;;;10499751;28;20368;-62
2022/08/24 23:42:12;;;;;;;;;;;;;;;;;;10499552;28;20376;-62
2022/08/24 23:47:14;;;;;;;;;;;;;;;;;;10500071;28;19939;-62
2022/08/24 23:52:16;;;;;;;;;;;;;;;;;;10499460;28;19931;-62
2022/08/24 23:57:28;;;;;;;;;;;;;;;;;;10499715;28;19996;-62
